createdAt,value
2023-02-26T00:29:41.814Z,0
2023-02-26T00:30:22.206Z,0
2023-02-26T00:31:02.787Z,0
2023-02-26T00:31:43.288Z,0
2023-02-26T00:32:23.745Z,0
2023-02-26T00:33:04.218Z,0
2023-02-26T00:33:44.723Z,0
2023-02-26T00:34:25.188Z,0
2023-02-26T00:35:05.682Z,0
2023-02-26T00:35:46.157Z,0
2023-02-26T00:36:27.099Z,0
2023-02-26T00:43:11.491Z,0
2023-02-26T00:43:52.005Z,0
2023-02-26T00:44:32.483Z,0
2023-02-26T00:45:12.978Z,0
2023-02-26T00:45:53.506Z,0
2023-02-26T00:46:33.972Z,0
2023-02-26T00:47:14.450Z,0
2023-02-26T00:47:54.938Z,0
2023-02-26T00:48:35.425Z,0
2023-02-26T00:49:15.941Z,0
2023-02-26T00:49:56.401Z,0
2023-02-26T00:57:21.748Z,0
2023-02-26T00:58:02.253Z,0
2023-02-26T00:58:42.746Z,0
2023-02-26T00:59:23.230Z,0
2023-02-26T01:00:03.825Z,0
2023-02-26T01:00:44.238Z,0
2023-02-26T01:01:24.728Z,0
2023-02-26T01:02:05.173Z,0
2023-02-26T01:02:45.701Z,0
2023-02-26T01:03:26.152Z,0
2023-02-26T01:04:06.732Z,0
2023-02-26T01:10:51.518Z,0
2023-02-26T01:11:31.993Z,0
2023-02-26T01:12:12.473Z,0
2023-02-26T01:12:52.986Z,0
2023-02-26T01:13:33.461Z,0
2023-02-26T01:14:13.940Z,0
2023-02-26T01:14:54.416Z,0
2023-02-26T01:15:34.912Z,0
2023-02-26T01:16:15.459Z,0
2023-02-26T01:17:36.370Z,0
2023-02-26T01:25:01.763Z,0
2023-02-26T01:25:42.216Z,0
2023-02-26T01:26:22.709Z,0
2023-02-26T01:27:03.216Z,0
2023-02-26T01:27:43.707Z,0
2023-02-26T01:28:24.223Z,0
2023-02-26T01:29:04.716Z,0
2023-02-26T01:29:45.300Z,0
2023-02-26T01:30:25.796Z,0
2023-02-26T01:31:06.339Z,0
2023-02-26T01:31:46.981Z,0
2023-02-26T01:38:31.724Z,0
2023-02-26T01:39:12.207Z,0
2023-02-26T01:39:52.678Z,0
2023-02-26T01:40:33.173Z,0
2023-02-26T01:41:13.640Z,0
2023-02-26T01:41:54.145Z,0
2023-02-26T01:43:15.780Z,0
2023-02-26T01:43:56.282Z,0
2023-02-26T01:44:36.742Z,0
2023-02-26T01:51:21.665Z,0
2023-02-26T01:52:02.139Z,0
2023-02-26T01:52:42.669Z,0
2023-02-26T01:53:23.118Z,0
2023-02-26T01:54:03.578Z,0
2023-02-26T01:54:44.070Z,0
2023-02-26T01:55:24.575Z,0
2023-02-26T01:56:05.077Z,0
2023-02-26T01:56:45.558Z,0
2023-02-26T01:57:26.031Z,0
2023-02-26T01:58:06.525Z,0
2023-02-26T02:05:31.923Z,0
2023-02-26T02:08:45.615Z,0
2023-02-26T02:09:26.046Z,0
2023-02-26T02:10:06.581Z,0
2023-02-26T02:10:47.053Z,0
2023-02-26T02:11:27.530Z,0
2023-02-26T02:12:08.037Z,0
2023-02-26T02:12:48.581Z,0
2023-02-26T02:13:29.020Z,0
2023-02-26T02:14:09.498Z,0
2023-02-26T02:14:50.038Z,0
2023-02-26T02:15:30.508Z,0
2023-02-26T02:22:15.362Z,0
2023-02-26T02:22:55.862Z,0
2023-02-26T02:26:10.553Z,0
2023-02-26T02:26:51.059Z,0
2023-02-26T02:27:31.549Z,0
2023-02-26T02:28:12.025Z,0
2023-02-26T02:28:52.486Z,0
2023-02-26T02:29:32.968Z,0
2023-02-26T02:30:13.429Z,0
2023-02-26T02:30:53.962Z,0
2023-02-26T02:31:34.485Z,0
2023-02-26T02:32:55.493Z,0
2023-02-26T02:40:20.628Z,0
2023-02-26T02:41:01.059Z,0
2023-02-26T02:41:41.546Z,0
2023-02-26T02:42:22.053Z,0
2023-02-26T02:43:02.496Z,0
2023-02-26T02:43:42.971Z,0
2023-02-26T02:44:23.464Z,0
2023-02-26T02:45:44.586Z,0
2023-02-26T02:46:25.360Z,0
2023-02-26T02:47:05.456Z,0
2023-02-26T02:53:50.363Z,0
2023-02-26T02:54:30.861Z,0
2023-02-26T02:55:11.325Z,0
2023-02-26T02:55:51.837Z,0
2023-02-26T02:56:32.285Z,0
2023-02-26T02:57:12.795Z,0
2023-02-26T02:58:33.722Z,0
2023-02-26T02:59:14.233Z,0
2023-02-26T02:59:54.725Z,0
2023-02-26T03:00:35.207Z,0
2023-02-26T03:05:55.331Z,0
2023-02-26T03:06:36.257Z,0
2023-02-26T03:07:16.385Z,0
2023-02-26T03:07:56.911Z,0
2023-02-26T03:08:37.447Z,0
2023-02-26T03:09:17.911Z,0
2023-02-26T03:09:58.384Z,0
2023-02-26T03:10:38.887Z,0
2023-02-26T03:11:19.359Z,0
2023-02-26T03:11:59.877Z,0
2023-02-26T03:12:40.363Z,0
2023-02-26T03:19:25.373Z,0
2023-02-26T03:20:05.881Z,0
2023-02-26T03:20:46.338Z,0
2023-02-26T03:21:26.859Z,0
2023-02-26T03:22:07.387Z,0
2023-02-26T03:22:47.831Z,0
2023-02-26T03:23:28.371Z,0
2023-02-26T03:24:08.923Z,0
2023-02-26T03:24:49.383Z,0
2023-02-26T03:25:29.912Z,0
2023-02-26T03:32:55.571Z,0
2023-02-26T03:33:36.044Z,0
2023-02-26T03:34:16.536Z,0
2023-02-26T03:34:57.015Z,0
2023-02-26T03:35:37.503Z,0
2023-02-26T03:36:18.016Z,0
2023-02-26T03:36:58.543Z,0
2023-02-26T03:37:39.027Z,0
2023-02-26T03:38:19.536Z,0
2023-02-26T03:39:00.096Z,0
2023-02-26T03:45:45.209Z,0
2023-02-26T03:46:25.990Z,0
2023-02-26T03:47:06.125Z,0
2023-02-26T03:47:46.617Z,0
2023-02-26T03:48:27.099Z,0
2023-02-26T03:49:07.636Z,0
2023-02-26T03:49:48.111Z,0
2023-02-26T03:50:28.561Z,0
2023-02-26T03:51:09.063Z,0
2023-02-26T03:51:49.557Z,0
2023-02-26T03:52:30.044Z,0
2023-02-26T03:59:15.261Z,0
2023-02-26T03:59:55.774Z,0
2023-02-26T04:00:36.331Z,0
2023-02-26T04:01:16.787Z,0
2023-02-26T04:01:57.301Z,0
2023-02-26T04:05:10.945Z,0
2023-02-26T04:05:51.502Z,0
2023-02-26T04:06:31.975Z,0
2023-02-26T04:07:12.518Z,0
2023-02-26T04:07:52.989Z,0
2023-02-26T04:08:33.420Z,0
2023-02-26T04:09:16.058Z,0
2023-02-26T04:09:54.455Z,0
2023-02-26T04:10:34.965Z,0
2023-02-26T04:11:15.444Z,0
2023-02-26T04:18:01.330Z,0
2023-02-26T04:18:41.812Z,0
2023-02-26T04:19:22.311Z,0
2023-02-26T04:20:02.808Z,0
2023-02-26T04:20:43.329Z,0
2023-02-26T04:21:23.818Z,0
2023-02-26T04:22:04.288Z,0
2023-02-26T04:22:44.791Z,0
2023-02-26T04:23:25.344Z,0
2023-02-26T04:31:31.753Z,0
2023-02-26T04:32:11.772Z,0
2023-02-26T04:32:52.149Z,0
2023-02-26T04:33:32.674Z,0
2023-02-26T04:34:13.136Z,0
2023-02-26T04:34:53.628Z,0
2023-02-26T04:35:34.113Z,0
2023-02-26T04:36:14.609Z,0
2023-02-26T04:36:55.100Z,0
2023-02-26T04:37:35.566Z,0
2023-02-26T04:38:16.036Z,0
2023-02-26T04:45:01.146Z,0
2023-02-26T04:45:41.644Z,0
2023-02-26T04:46:22.397Z,0
2023-02-26T04:47:02.696Z,0
2023-02-26T04:47:43.166Z,0
2023-02-26T04:48:23.691Z,0
2023-02-26T04:49:04.195Z,0
2023-02-26T04:49:44.713Z,0
2023-02-26T04:50:25.220Z,0
2023-02-26T04:51:05.707Z,0
2023-02-26T04:57:50.945Z,0
2023-02-26T04:58:31.362Z,0
2023-02-26T04:59:11.849Z,0
2023-02-26T04:59:52.351Z,0
2023-02-26T05:00:32.835Z,0
2023-02-26T05:01:13.379Z,0
2023-02-26T05:01:53.909Z,0
2023-02-26T05:02:35.085Z,0
2023-02-26T05:03:15.552Z,0
2023-02-26T05:10:40.928Z,0
2023-02-26T05:11:21.456Z,0
2023-02-26T05:12:01.900Z,0
2023-02-26T05:12:42.359Z,0
2023-02-26T05:13:22.943Z,0
2023-02-26T05:14:03.375Z,0
2023-02-26T05:14:43.898Z,0
2023-02-26T05:15:24.345Z,0
2023-02-26T05:16:04.912Z,0
2023-02-26T05:16:45.343Z,0
2023-02-26T05:17:25.806Z,0
2023-02-26T05:24:10.728Z,0
2023-02-26T05:24:51.227Z,0
2023-02-26T05:25:31.803Z,0
2023-02-26T05:26:12.205Z,0
2023-02-26T05:26:52.793Z,0
2023-02-26T05:27:33.216Z,0
2023-02-26T05:28:13.713Z,0
2023-02-26T05:28:54.265Z,0
2023-02-26T05:29:34.706Z,0
2023-02-26T05:30:15.256Z,0
2023-02-26T05:30:55.822Z,0
2023-02-26T05:37:40.880Z,0
2023-02-26T05:38:21.406Z,0
2023-02-26T05:39:01.904Z,0
2023-02-26T05:39:42.433Z,0
2023-02-26T05:40:22.866Z,0
2023-02-26T05:41:03.383Z,0
2023-02-26T05:41:43.963Z,0
2023-02-26T05:42:24.349Z,0
2023-02-26T05:43:04.868Z,0
2023-02-26T05:43:45.357Z,0
2023-02-26T05:44:25.873Z,0
2023-02-26T05:51:10.937Z,0
2023-02-26T05:51:51.413Z,0
2023-02-26T05:52:31.947Z,0
2023-02-26T06:30:38.623Z,160
2023-02-26T06:31:19.019Z,172
2023-02-26T06:31:59.552Z,176
2023-02-26T06:32:40.035Z,188
2023-02-26T06:33:20.477Z,204
2023-02-26T06:34:00.954Z,220
2023-02-26T06:34:41.456Z,232
2023-02-26T06:35:21.950Z,244
2023-02-26T06:36:02.473Z,264
2023-02-26T06:37:26.122Z,308
2023-02-26T06:40:48.737Z,436
2023-02-26T06:41:29.186Z,372
2023-02-26T06:42:09.698Z,348
2023-02-26T06:42:50.195Z,340
2023-02-26T06:43:30.730Z,352
2023-02-26T06:44:11.219Z,424
2023-02-26T06:44:51.666Z,556
2023-02-26T06:45:32.180Z,700
2023-02-26T06:46:13.605Z,828
2023-02-26T06:52:58.491Z,1744
2023-02-26T06:53:39.031Z,1792
2023-02-26T06:54:19.513Z,1956
2023-02-26T06:55:00.039Z,2028
2023-02-26T06:55:40.506Z,1984
2023-02-26T06:56:22.694Z,1984
2023-02-26T06:57:01.535Z,1980
2023-02-26T06:57:42.018Z,1932
2023-02-26T06:58:22.505Z,1952
2023-02-26T06:59:02.984Z,2008
2023-02-26T06:59:43.504Z,2092
2023-02-26T07:06:29.015Z,3660
2023-02-26T07:07:09.510Z,4148
2023-02-26T07:07:50.034Z,4336
2023-02-26T07:08:30.536Z,4268
2023-02-26T07:09:11.142Z,4120
2023-02-26T07:09:51.537Z,4436
2023-02-26T07:10:32.025Z,4348
2023-02-26T07:11:12.527Z,4368
2023-02-26T07:11:53.066Z,4032
2023-02-26T07:12:33.583Z,3440
2023-02-26T07:19:18.622Z,3220
2023-02-26T07:19:59.138Z,3272
2023-02-26T07:20:39.672Z,3240
2023-02-26T07:21:20.188Z,3152
2023-02-26T07:22:00.671Z,2856
2023-02-26T07:22:41.189Z,2796
2023-02-26T07:23:21.693Z,2768
2023-02-26T07:24:02.186Z,2752
2023-02-26T07:24:42.712Z,2716
2023-02-26T07:25:23.183Z,2744
2023-02-26T07:32:08.649Z,2696
2023-02-26T07:32:49.163Z,2700
2023-02-26T07:33:29.624Z,2708
2023-02-26T07:34:10.104Z,2728
2023-02-26T07:34:50.592Z,2768
2023-02-26T07:35:31.127Z,2792
2023-02-26T07:36:11.670Z,2888
2023-02-26T07:37:32.604Z,2928
2023-02-26T07:38:13.131Z,2952
2023-02-26T07:38:53.621Z,2972
2023-02-26T07:45:38.600Z,2732
2023-02-26T07:46:19.164Z,2708
2023-02-26T07:46:59.641Z,2708
2023-02-26T07:47:40.193Z,2680
2023-02-26T07:48:20.791Z,2668
2023-02-26T07:49:01.280Z,2632
2023-02-26T07:49:41.789Z,2648
2023-02-26T07:50:22.269Z,2556
2023-02-26T07:51:03.623Z,2488
2023-02-26T07:57:09.277Z,1912
2023-02-26T07:57:49.713Z,1688
2023-02-26T07:58:30.802Z,1576
2023-02-26T07:59:11.408Z,1496
2023-02-26T07:59:51.970Z,1468
2023-02-26T08:00:32.472Z,1440
2023-02-26T08:01:14.976Z,1420
2023-02-26T08:06:38.617Z,1364
2023-02-26T08:07:19.115Z,1392
2023-02-26T08:07:59.668Z,1132
2023-02-26T08:08:40.193Z,1348
2023-02-26T08:09:22.868Z,1364
2023-02-26T08:10:03.352Z,1364
2023-02-26T08:16:08.566Z,1416
2023-02-26T08:16:48.995Z,1432
2023-02-26T08:17:29.507Z,1452
2023-02-26T08:18:10.028Z,1476
2023-02-26T08:18:50.671Z,1556
2023-02-26T08:20:11.737Z,1456
2023-02-26T08:20:52.704Z,1188
2023-02-26T08:21:33.190Z,1444
2023-02-26T08:27:38.295Z,1128
2023-02-26T08:28:18.803Z,1228
2023-02-26T08:28:59.460Z,1452
2023-02-26T08:29:40.195Z,1420
2023-02-26T08:30:20.648Z,1376
2023-02-26T08:31:01.924Z,1136
2023-02-26T08:31:42.467Z,1340
2023-02-26T08:32:22.835Z,1332
2023-02-26T08:33:03.219Z,1332
2023-02-26T08:38:28.659Z,1284
2023-02-26T08:39:09.194Z,1284
2023-02-26T08:39:49.695Z,1284
2023-02-26T08:40:30.222Z,1276
2023-02-26T08:41:10.687Z,1284
2023-02-26T08:41:51.179Z,1284
2023-02-26T08:42:31.700Z,1276
2023-02-26T08:43:12.233Z,1272
2023-02-26T08:43:52.696Z,1264
2023-02-26T08:44:34.883Z,1268
2023-02-26T08:48:12.472Z,1248
2023-02-26T08:48:52.925Z,1240
2023-02-26T08:49:33.399Z,1232
2023-02-26T08:50:16.690Z,1232
2023-02-26T08:50:57.652Z,1236
2023-02-26T08:55:03.139Z,1252
2023-02-26T08:55:43.213Z,1256
2023-02-26T08:56:24.038Z,1256
2023-02-26T08:57:04.254Z,1244
2023-02-26T08:57:44.709Z,1244
2023-02-26T08:58:25.222Z,1252
2023-02-26T08:59:05.736Z,1256
2023-02-26T09:00:26.823Z,1268
2023-02-26T09:01:07.359Z,1276
2023-02-26T09:07:12.300Z,1200
2023-02-26T09:07:52.903Z,1204
2023-02-26T09:08:33.459Z,1204
2023-02-26T09:09:14.001Z,1200
2023-02-26T09:09:56.019Z,1204
2023-02-26T09:13:10.240Z,1188
2023-02-26T09:13:50.706Z,1184
2023-02-26T09:14:31.639Z,900
2023-02-26T09:15:12.225Z,1200
2023-02-26T09:15:52.701Z,1200
2023-02-26T09:16:33.937Z,1204
2023-02-26T09:17:54.912Z,1196
2023-02-26T09:23:20.208Z,1176
2023-02-26T09:24:00.540Z,1184
2023-02-26T09:24:41.124Z,1176
2023-02-26T09:25:22.419Z,1172
2023-02-26T09:26:02.967Z,1168
2023-02-26T09:26:43.710Z,1164
2023-02-26T09:27:24.246Z,1168
2023-02-26T09:28:04.772Z,1160
2023-02-26T09:28:45.271Z,1160
2023-02-26T09:34:51.385Z,1192
2023-02-26T09:35:31.818Z,1192
2023-02-26T09:36:12.359Z,1220
2023-02-26T09:36:53.224Z,1224
2023-02-26T09:37:34.347Z,1232
2023-02-26T09:38:14.631Z,1208
2023-02-26T09:38:55.288Z,1204
2023-02-26T09:43:56.000Z,1168
2023-02-26T09:44:36.248Z,1160
2023-02-26T09:45:16.692Z,1160
2023-02-26T09:45:57.363Z,1148
2023-02-26T09:46:37.840Z,1136
2023-02-26T09:47:18.371Z,1132
2023-02-26T09:47:58.925Z,1140
2023-02-26T09:48:39.457Z,1148
2023-02-26T09:49:19.985Z,1168
2023-02-26T09:55:41.191Z,1244
2023-02-26T09:56:21.723Z,1280
2023-02-26T09:57:02.270Z,1340
2023-02-26T09:57:42.760Z,1440
2023-02-26T09:58:23.259Z,1576
2023-02-26T09:59:03.855Z,1228
2023-02-26T09:59:44.355Z,980
2023-02-26T10:00:24.882Z,948
2023-02-26T10:01:05.406Z,976
2023-02-26T10:01:45.975Z,976
2023-02-26T10:08:07.355Z,992
2023-02-26T10:08:47.857Z,988
2023-02-26T10:09:28.522Z,968
2023-02-26T10:10:08.996Z,1008
2023-02-26T10:14:12.489Z,964
2023-02-26T10:14:52.998Z,1260
2023-02-26T10:15:33.453Z,1264
2023-02-26T10:16:14.014Z,1280
2023-02-26T10:16:54.690Z,1268
2023-02-26T10:17:35.309Z,1240
2023-02-26T10:18:15.840Z,1224
2023-02-26T10:18:56.342Z,1220
2023-02-26T10:19:36.863Z,1200
2023-02-26T10:20:17.487Z,1000
2023-02-26T10:27:02.676Z,1164
2023-02-26T10:27:43.187Z,1164
2023-02-26T10:28:23.987Z,1172
2023-02-26T10:29:04.579Z,1148
2023-02-26T10:29:45.025Z,1132
2023-02-26T10:30:25.568Z,1116
2023-02-26T10:31:06.408Z,1108
2023-02-26T10:31:46.931Z,1112
2023-02-26T10:32:27.487Z,1116
2023-02-26T10:33:07.852Z,1112
2023-02-26T10:39:12.916Z,1088
2023-02-26T10:39:53.515Z,1084
2023-02-26T10:40:33.986Z,1100
2023-02-26T10:41:14.770Z,1100
2023-02-26T10:41:55.179Z,1104
2023-02-26T10:42:35.766Z,1112
2023-02-26T10:43:16.314Z,1124
2023-02-26T10:43:56.879Z,1144
2023-02-26T10:44:37.333Z,1140
2023-02-26T10:45:17.890Z,1144
2023-02-26T10:49:22.508Z,1108
2023-02-26T10:50:03.043Z,1088
2023-02-26T10:50:43.519Z,792
2023-02-26T10:51:24.231Z,1168
2023-02-26T10:52:04.501Z,1144
2023-02-26T10:52:44.992Z,1136
2023-02-26T10:53:25.483Z,1128
2023-02-26T10:54:05.946Z,1120
2023-02-26T10:54:46.480Z,1128
2023-02-26T10:55:26.963Z,1140
2023-02-26T10:56:07.425Z,1184
2023-02-26T11:02:52.594Z,1484
2023-02-26T11:03:33.179Z,1612
2023-02-26T11:04:13.644Z,1744
2023-02-26T11:05:06.822Z,1628
2023-02-26T11:05:34.661Z,1484
2023-02-26T11:06:15.176Z,1460
2023-02-26T11:07:36.132Z,1552
2023-02-26T11:08:16.650Z,1656
2023-02-26T11:08:57.148Z,1624
2023-02-26T11:16:22.819Z,944
2023-02-26T11:17:03.331Z,1040
2023-02-26T11:17:43.845Z,1404
2023-02-26T11:18:24.411Z,1028
2023-02-26T11:19:04.872Z,1252
2023-02-26T11:19:45.346Z,1164
2023-02-26T11:20:25.886Z,1204
2023-02-26T11:21:06.411Z,1228
2023-02-26T11:21:46.929Z,1164
2023-02-26T11:22:27.413Z,1172
2023-02-26T11:29:12.591Z,1180
2023-02-26T11:29:53.059Z,1064
2023-02-26T11:30:33.567Z,768
2023-02-26T11:31:14.124Z,748
2023-02-26T11:31:54.670Z,728
2023-02-26T11:32:35.086Z,720
2023-02-26T11:33:15.641Z,732
2023-02-26T11:33:56.121Z,724
2023-02-26T11:34:36.660Z,708
2023-02-26T11:35:17.120Z,716
2023-02-26T11:35:57.625Z,704
2023-02-26T11:42:42.764Z,1244
2023-02-26T11:43:23.316Z,1280
2023-02-26T11:44:03.785Z,1340
2023-02-26T11:44:44.282Z,1364
2023-02-26T11:45:24.800Z,1392
2023-02-26T11:46:05.289Z,1428
2023-02-26T11:46:45.814Z,1436
2023-02-26T11:47:26.314Z,1608
2023-02-26T11:48:06.852Z,1648
2023-02-26T11:48:47.297Z,1508
2023-02-26T11:49:27.823Z,1484
2023-02-26T12:32:28.701Z,1064
2023-02-26T12:33:09.082Z,1144
2023-02-26T12:33:49.613Z,1080
2023-02-26T12:34:30.112Z,964
2023-02-26T12:35:10.586Z,964
2023-02-26T12:35:51.091Z,972
2023-02-26T12:36:46.623Z,984
2023-02-26T12:37:12.934Z,1028
2023-02-26T12:37:52.609Z,1072
2023-02-26T12:38:33.103Z,1016
2023-02-26T12:45:18.194Z,1084
2023-02-26T12:45:58.699Z,1100
2023-02-26T12:46:39.263Z,1108
2023-02-26T12:47:19.770Z,1092
2023-02-26T12:48:00.237Z,1128
2023-02-26T12:48:40.730Z,936
2023-02-26T12:49:21.238Z,840
2023-02-26T12:50:01.745Z,1076
2023-02-26T12:50:42.287Z,748
2023-02-26T12:51:22.883Z,728
2023-02-26T12:52:03.283Z,728
2023-02-26T12:58:45.048Z,1084
2023-02-26T12:59:25.618Z,1084
2023-02-26T13:00:06.106Z,892
2023-02-26T13:00:46.627Z,944
2023-02-26T13:01:27.416Z,1072
2023-02-26T13:02:07.682Z,1068
2023-02-26T13:02:48.226Z,1028
2023-02-26T13:03:28.850Z,960
2023-02-26T13:04:09.353Z,1024
2023-02-26T13:04:49.803Z,1032
2023-02-26T13:11:34.878Z,988
2023-02-26T13:12:15.394Z,972
2023-02-26T13:12:55.913Z,948
2023-02-26T13:13:36.391Z,868
2023-02-26T13:14:16.924Z,668
2023-02-26T13:14:57.423Z,752
2023-02-26T13:15:37.949Z,772
2023-02-26T13:16:18.431Z,932
2023-02-26T13:18:34.361Z,940
2023-02-26T13:19:15.520Z,932
2023-02-26T13:19:56.753Z,932
2023-02-26T13:20:37.529Z,936
2023-02-26T13:21:18.357Z,932
2023-02-26T13:21:59.185Z,940
2023-02-26T13:25:26.403Z,960
2023-02-26T13:26:05.191Z,956
2023-02-26T13:26:46.162Z,956
2023-02-26T13:27:27.044Z,888
2023-02-26T13:28:07.763Z,960
2023-02-26T13:28:48.927Z,948
2023-02-26T13:32:14.168Z,952
2023-02-26T13:32:54.969Z,748
2023-02-26T13:33:35.867Z,844
2023-02-26T13:34:16.810Z,1060
2023-02-26T13:34:57.653Z,1056
2023-02-26T13:35:38.651Z,940
2023-02-26T13:36:19.292Z,932
2023-02-26T13:38:24.374Z,860
2023-02-26T13:39:05.281Z,992
2023-02-26T13:39:45.862Z,944
2023-02-26T13:40:26.825Z,976
2023-02-26T13:41:07.463Z,852
2023-02-26T13:41:48.221Z,712
2023-02-26T13:42:28.931Z,712
2023-02-26T13:46:34.173Z,692
2023-02-26T13:47:17.065Z,924
2023-02-26T13:47:55.753Z,920
2023-02-26T13:48:36.350Z,912
2023-02-26T13:49:17.172Z,908
2023-02-26T13:49:59.487Z,904
2023-02-26T13:54:05.052Z,884
2023-02-26T13:54:45.799Z,880
2023-02-26T13:55:26.424Z,880
2023-02-26T13:56:07.474Z,892
2023-02-26T13:56:49.021Z,884
2023-02-26T14:00:14.316Z,1004
2023-02-26T14:00:57.744Z,928
2023-02-26T14:01:37.974Z,872
2023-02-26T14:02:19.024Z,876
2023-02-26T14:06:24.716Z,868
2023-02-26T14:07:05.455Z,852
2023-02-26T14:07:47.583Z,708
2023-02-26T14:08:28.627Z,840
2023-02-26T14:12:34.847Z,816
2023-02-26T14:13:15.711Z,816
2023-02-26T14:13:57.116Z,820
2023-02-26T14:14:37.350Z,796
2023-02-26T14:15:18.309Z,796
2023-02-26T14:15:59.249Z,632
2023-02-26T14:20:05.305Z,804
2023-02-26T14:20:46.114Z,780
2023-02-26T14:21:27.655Z,760
2023-02-26T14:22:08.208Z,804
2023-02-26T14:25:34.061Z,780
2023-02-26T14:26:14.639Z,780
2023-02-26T14:26:56.097Z,784
2023-02-26T14:27:36.663Z,784
2023-02-26T14:28:17.737Z,784
2023-02-26T14:28:58.882Z,784
2023-02-26T14:29:40.077Z,796
2023-02-26T14:31:38.730Z,832
2023-02-26T14:32:19.212Z,840
2023-02-26T14:33:00.010Z,840
2023-02-26T14:33:40.519Z,836
2023-02-26T14:34:21.075Z,828
2023-02-26T14:35:01.586Z,828
2023-02-26T14:35:42.096Z,824
2023-02-26T14:36:22.583Z,816
2023-02-26T14:37:03.074Z,816
2023-02-26T14:37:43.600Z,812
2023-02-26T14:44:28.828Z,836
2023-02-26T14:45:09.313Z,812
2023-02-26T14:45:50.608Z,804
2023-02-26T14:46:31.174Z,788
2023-02-26T14:47:11.609Z,784
2023-02-26T14:47:52.074Z,784
2023-02-26T14:49:13.058Z,792
2023-02-26T14:49:53.673Z,804
2023-02-26T14:52:38.533Z,864
2023-02-26T14:53:19.074Z,888
2023-02-26T14:53:59.546Z,916
2023-02-26T14:54:40.034Z,948
2023-02-26T14:55:20.606Z,956
2023-02-26T14:56:01.064Z,944
2023-02-26T14:56:41.579Z,932
2023-02-26T14:57:22.095Z,960
2023-02-26T14:58:02.608Z,960
2023-02-26T14:58:43.103Z,928
2023-02-26T14:59:23.659Z,924
2023-02-26T15:06:08.786Z,784
2023-02-26T15:06:49.383Z,784
2023-02-26T15:07:29.907Z,784
2023-02-26T15:08:10.378Z,784
2023-02-26T15:08:51.038Z,788
2023-02-26T15:09:33.008Z,784
2023-02-26T15:10:13.378Z,668
2023-02-26T15:13:38.407Z,808
2023-02-26T15:14:18.920Z,808
2023-02-26T15:14:59.489Z,832
2023-02-26T15:15:40.995Z,836
2023-02-26T15:16:22.324Z,648
2023-02-26T15:17:02.880Z,692
2023-02-26T15:17:43.377Z,1012
2023-02-26T15:24:05.866Z,5100
2023-02-26T15:24:46.229Z,4928
2023-02-26T15:25:26.748Z,4772
2023-02-26T15:26:07.229Z,4148
2023-02-26T15:26:47.813Z,3868
2023-02-26T15:27:28.294Z,2400
2023-02-26T15:28:08.803Z,4468
2023-02-26T15:28:49.355Z,4108
2023-02-26T15:34:54.447Z,2980
2023-02-26T15:35:34.952Z,2696
2023-02-26T15:36:15.369Z,2448
2023-02-26T15:36:55.901Z,2336
2023-02-26T15:37:36.482Z,2160
2023-02-26T15:38:17.049Z,1992
2023-02-26T15:38:57.546Z,1792
2023-02-26T15:39:38.113Z,1608
2023-02-26T15:40:18.670Z,1464
2023-02-26T15:40:59.420Z,1408
2023-02-26T15:46:25.084Z,1248
2023-02-26T15:47:05.460Z,1220
2023-02-26T15:47:46.082Z,1192
2023-02-26T15:48:26.701Z,1160
2023-02-26T15:49:07.416Z,1128
2023-02-26T15:49:47.984Z,1084
2023-02-26T15:50:28.463Z,1040
2023-02-26T15:51:08.890Z,972
2023-02-26T15:51:49.443Z,936
2023-02-26T15:58:34.699Z,580
2023-02-26T15:59:15.217Z,576
2023-02-26T15:59:55.792Z,568
2023-02-26T16:00:37.108Z,564
2023-02-26T16:01:17.735Z,556
2023-02-26T16:01:58.243Z,552
2023-02-26T16:03:19.191Z,540
2023-02-26T16:03:59.671Z,536
2023-02-26T16:10:44.950Z,492
2023-02-26T16:11:25.417Z,484
2023-02-26T16:12:05.901Z,480
2023-02-26T16:12:46.405Z,476
2023-02-26T16:13:26.900Z,468
2023-02-26T16:14:07.440Z,464
2023-02-26T16:14:47.930Z,452
2023-02-26T16:15:28.432Z,444
2023-02-26T16:16:08.968Z,444
2023-02-26T16:16:49.501Z,436
2023-02-26T16:22:54.879Z,396
2023-02-26T16:23:35.413Z,392
2023-02-26T16:24:15.918Z,392
2023-02-26T16:24:56.493Z,392
2023-02-26T16:25:37.040Z,380
2023-02-26T16:26:17.527Z,376
2023-02-26T16:26:58.248Z,364
2023-02-26T16:27:38.533Z,352
2023-02-26T16:28:19.765Z,348
2023-02-26T16:34:24.723Z,304
2023-02-26T16:35:05.215Z,296
2023-02-26T16:35:45.911Z,292
2023-02-26T16:36:26.617Z,284
2023-02-26T16:37:06.763Z,280
2023-02-26T16:37:47.243Z,276
2023-02-26T16:38:27.749Z,268
2023-02-26T16:39:08.254Z,264
2023-02-26T16:39:48.751Z,260
2023-02-26T16:40:29.197Z,252
2023-02-26T16:47:14.481Z,192
2023-02-26T16:47:55.000Z,188
2023-02-26T16:48:35.570Z,184
2023-02-26T16:49:16.032Z,180
2023-02-26T16:49:56.591Z,172
2023-02-26T16:50:37.040Z,168
2023-02-26T16:51:17.584Z,160
2023-02-26T16:51:58.126Z,152
2023-02-26T16:52:38.569Z,152
2023-02-26T16:53:19.776Z,144
2023-02-26T16:59:24.557Z,96
2023-02-26T17:00:05.049Z,88
2023-02-26T17:00:45.739Z,84
2023-02-26T17:01:26.463Z,80
2023-02-26T17:02:06.616Z,76
2023-02-26T17:02:47.147Z,72
2023-02-26T17:03:27.668Z,68
2023-02-26T17:04:08.302Z,64
2023-02-26T17:04:48.796Z,60
2023-02-26T17:05:29.356Z,56
2023-02-26T17:11:34.808Z,28
2023-02-26T17:12:15.366Z,28
2023-02-26T17:12:55.881Z,24
2023-02-26T17:13:36.395Z,20
2023-02-26T17:14:16.848Z,20
2023-02-26T17:14:57.407Z,20
2023-02-26T17:15:37.903Z,16
2023-02-26T17:16:18.438Z,16
2023-02-26T17:16:58.925Z,12
2023-02-26T17:17:39.391Z,12
2023-02-26T17:24:24.501Z,4
2023-02-26T17:25:04.910Z,4
2023-02-26T17:25:45.419Z,4
2023-02-26T17:26:25.908Z,4
2023-02-26T17:27:06.447Z,0
2023-02-26T17:27:46.950Z,4
2023-02-26T17:28:27.440Z,4
2023-02-26T17:29:07.924Z,0
2023-02-26T17:29:48.415Z,0
2023-02-26T17:30:28.962Z,0
2023-02-26T17:31:09.457Z,4
2023-02-26T17:37:54.594Z,0
2023-02-26T17:38:35.126Z,0
2023-02-26T17:39:15.561Z,0
2023-02-26T17:39:56.150Z,0
2023-02-26T17:40:36.725Z,0
2023-02-26T17:41:17.160Z,0
2023-02-26T17:41:57.691Z,0
2023-02-26T17:42:38.169Z,0
2023-02-26T17:43:18.699Z,0
2023-02-26T17:43:59.191Z,0
2023-02-26T17:44:39.761Z,0
2023-02-26T17:49:24.456Z,0
2023-02-26T17:50:05.009Z,0
2023-02-26T17:50:45.543Z,0
2023-02-26T17:51:26.557Z,0
2023-02-26T17:52:06.524Z,0
2023-02-26T17:52:47.023Z,0
2023-02-26T18:34:16.151Z,0
2023-02-26T18:34:56.721Z,0
2023-02-26T18:35:37.169Z,0
2023-02-26T18:36:17.739Z,0
2023-02-26T18:36:58.269Z,0
2023-02-26T18:37:38.743Z,0
2023-02-26T18:38:19.243Z,0
2023-02-26T18:38:59.790Z,0
2023-02-26T18:39:40.271Z,0
2023-02-26T18:40:20.747Z,0
2023-02-26T18:41:01.396Z,0
2023-02-26T18:47:06.575Z,0
2023-02-26T18:47:46.851Z,0
2023-02-26T18:48:27.365Z,0
2023-02-26T18:49:07.850Z,0
2023-02-26T18:49:48.566Z,0
2023-02-26T18:50:29.037Z,0
2023-02-26T18:51:09.913Z,0
2023-02-26T18:51:50.453Z,0
2023-02-26T18:52:31.644Z,0
2023-02-26T18:57:56.052Z,0
2023-02-26T18:58:37.746Z,0
2023-02-26T18:59:57.611Z,0
2023-02-26T19:00:38.112Z,0
2023-02-26T19:01:18.620Z,0
2023-02-26T19:01:59.137Z,0
2023-02-26T19:02:39.686Z,0
2023-02-26T19:03:20.229Z,0
2023-02-26T19:04:00.818Z,0
2023-02-26T19:12:32.747Z,0
2023-02-26T19:13:14.004Z,0
2023-02-26T19:13:55.001Z,0
2023-02-26T19:14:36.010Z,0
2023-02-26T19:15:58.121Z,0
2023-02-26T19:16:39.093Z,0
2023-02-26T19:17:20.097Z,0
2023-02-26T19:18:01.088Z,0
2023-02-26T19:18:42.083Z,0
2023-02-26T19:19:23.186Z,0
2023-02-26T19:22:48.063Z,0
2023-02-26T19:23:29.085Z,0
2023-02-26T19:24:10.080Z,0
2023-02-26T19:24:51.126Z,0
2023-02-26T19:25:32.284Z,0
2023-02-26T19:26:13.226Z,0
2023-02-26T19:29:38.620Z,0
2023-02-26T19:30:19.676Z,0
2023-02-26T19:31:00.999Z,0
2023-02-26T19:31:42.020Z,0
2023-02-26T19:32:23.215Z,0
2023-02-26T19:35:48.458Z,0
2023-02-26T19:36:29.392Z,0
2023-02-26T19:37:10.455Z,0
2023-02-26T19:37:51.396Z,0
2023-02-26T19:38:32.446Z,0
2023-02-26T19:39:13.421Z,0
2023-02-26T19:42:38.640Z,0
2023-02-26T19:43:19.615Z,0
2023-02-26T19:44:00.607Z,0
2023-02-26T19:44:41.636Z,0
2023-02-26T19:45:22.695Z,0
2023-02-26T19:48:47.775Z,0
2023-02-26T19:49:28.760Z,0
2023-02-26T19:50:09.734Z,0
2023-02-26T19:50:50.788Z,0
2023-02-26T19:51:31.947Z,0
2023-02-26T19:52:12.920Z,0
2023-02-26T19:54:58.217Z,0
2023-02-26T19:55:39.250Z,0
2023-02-26T19:56:20.345Z,0